createdAt,value
2022-12-19T00:00:05.614Z,27.73
2022-12-19T00:00:39.510Z,26.80
2022-12-19T00:01:18.743Z,26.77
2022-12-19T00:01:50.205Z,25.15
2022-12-19T00:02:21.756Z,25.80
2022-12-19T00:02:53.312Z,23.50
2022-12-19T00:03:24.998Z,23.80
2022-12-19T00:04:07.641Z,23.27
2022-12-19T00:04:40.218Z,22.98
2022-12-19T00:05:11.660Z,23.58
2022-12-19T00:05:43.176Z,24.85
2022-12-19T00:06:15.777Z,24.58
2022-12-19T00:06:47.195Z,23.95
2022-12-19T00:07:18.601Z,22.02
2022-12-19T00:07:50.013Z,24.50
2022-12-19T00:08:21.323Z,23.52
2022-12-19T00:08:54.147Z,24.13
2022-12-19T00:09:26.465Z,23.27
2022-12-19T00:09:57.833Z,23.45
2022-12-19T00:10:29.175Z,23.77
2022-12-19T00:11:02.152Z,24.23
2022-12-19T00:11:33.682Z,24.13
2022-12-19T00:12:05.222Z,24.98
2022-12-19T00:12:38.087Z,23.92
2022-12-19T00:13:09.615Z,24.60
2022-12-19T00:13:41.680Z,25.40
2022-12-19T00:14:13.053Z,26.77
2022-12-19T00:14:44.503Z,25.33
2022-12-19T00:15:15.970Z,23.95
2022-12-19T00:15:47.376Z,23.95
2022-12-19T00:16:24.309Z,23.48
2022-12-19T00:16:55.745Z,23.33
2022-12-19T00:17:27.090Z,24.52
2022-12-19T00:17:58.486Z,23.98
2022-12-19T00:18:30.171Z,24.75
2022-12-19T00:19:01.618Z,25.15
2022-12-19T00:19:32.987Z,24.20
2022-12-19T00:20:04.686Z,22.88
2022-12-19T00:20:36.235Z,23.48
2022-12-19T00:21:09.390Z,24.58
2022-12-19T00:21:40.956Z,23.90
2022-12-19T00:22:12.343Z,23.13
2022-12-19T00:22:43.708Z,22.25
2022-12-19T00:23:15.103Z,25.15
2022-12-19T00:23:47.503Z,24.80
2022-12-19T00:24:21.428Z,22.77
2022-12-19T00:24:53.225Z,24.03
2022-12-19T00:25:24.634Z,24.38
2022-12-19T00:26:10.402Z,24.08
2022-12-19T00:26:41.711Z,23.88
2022-12-19T00:27:13.080Z,23.70
2022-12-19T00:27:44.651Z,23.67
2022-12-19T00:28:16.086Z,24.48
2022-12-19T00:28:52.621Z,23.85
2022-12-19T00:29:24.065Z,23.00
2022-12-19T00:29:55.390Z,24.63
2022-12-19T00:30:26.722Z,23.03
2022-12-19T00:31:00.831Z,24.38
2022-12-19T00:31:34.584Z,23.15
2022-12-19T00:32:06.056Z,23.95
2022-12-19T00:32:37.867Z,24.48
2022-12-19T00:33:09.283Z,23.08
2022-12-19T00:33:43.396Z,23.33
2022-12-19T00:34:15.679Z,24.33
2022-12-19T00:34:47.028Z,25.02
2022-12-19T00:35:18.417Z,23.88
2022-12-19T00:35:49.852Z,23.57
2022-12-19T00:36:26.758Z,23.77
2022-12-19T00:36:58.175Z,24.58
2022-12-19T00:37:29.666Z,24.20
2022-12-19T00:38:01.122Z,25.38
2022-12-19T00:38:32.951Z,24.73
2022-12-19T00:39:07.772Z,24.50
2022-12-19T00:39:39.618Z,24.10
2022-12-19T00:40:11.446Z,25.13
2022-12-19T00:40:42.756Z,24.10
2022-12-19T00:41:19.962Z,23.83
2022-12-19T00:41:51.383Z,22.88
2022-12-19T00:42:22.778Z,24.83
2022-12-19T00:42:54.112Z,23.70
2022-12-19T00:43:26.751Z,22.83
2022-12-19T00:44:00.678Z,23.63
2022-12-19T00:44:32.246Z,24.08
2022-12-19T00:45:03.927Z,24.42
2022-12-19T00:45:38.404Z,25.17
2022-12-19T00:46:12.992Z,22.95
2022-12-19T00:46:51.514Z,24.80
2022-12-19T00:47:24.391Z,22.65
2022-12-19T00:47:55.746Z,23.80
2022-12-19T00:48:27.055Z,24.23
2022-12-19T00:48:59.296Z,22.95
2022-12-19T00:49:30.658Z,22.90
2022-12-19T00:50:03.903Z,24.40
2022-12-19T00:50:35.249Z,22.33
2022-12-19T00:51:10.958Z,23.73
2022-12-19T00:51:42.322Z,22.33
2022-12-19T00:52:13.747Z,22.40
2022-12-19T00:52:45.078Z,24.15
2022-12-19T00:53:16.462Z,24.55
2022-12-19T00:53:49.447Z,24.58
2022-12-19T00:54:21.267Z,26.95
2022-12-19T00:54:52.993Z,24.33
2022-12-19T00:55:24.423Z,24.38
2022-12-19T00:55:56.433Z,23.48
2022-12-19T00:56:33.493Z,23.45
2022-12-19T00:57:09.378Z,22.63
2022-12-19T00:57:40.897Z,23.73
2022-12-19T00:58:12.198Z,22.90
2022-12-19T00:58:47.176Z,23.00
2022-12-19T00:59:26.316Z,23.60
2022-12-19T00:59:58.288Z,21.92
2022-12-19T01:00:29.599Z,23.15
2022-12-19T01:01:18.756Z,22.30
2022-12-19T01:01:50.387Z,22.17
2022-12-19T01:02:21.902Z,23.90
2022-12-19T01:02:53.528Z,21.65
2022-12-19T01:03:26.067Z,22.60
2022-12-19T01:04:28.158Z,22.27
2022-12-19T01:05:00.149Z,19.92
2022-12-19T01:05:31.512Z,21.73
2022-12-19T01:06:03.038Z,23.08
2022-12-19T01:06:34.794Z,22.80
2022-12-19T01:07:08.073Z,20.98
2022-12-19T01:07:39.480Z,22.23
2022-12-19T01:08:10.890Z,22.08
2022-12-19T01:08:42.266Z,22.30
2022-12-19T01:09:14.071Z,23.57
2022-12-19T01:09:45.475Z,22.33
2022-12-19T01:10:18.068Z,21.20
2022-12-19T01:10:50.037Z,21.83
2022-12-19T01:11:43.775Z,22.65
2022-12-19T01:12:35.480Z,19.48
2022-12-19T01:13:06.795Z,20.08
2022-12-19T01:13:39.586Z,21.52
2022-12-19T01:14:18.972Z,20.17
2022-12-19T01:14:57.743Z,20.25
2022-12-19T01:15:39.656Z,19.03
2022-12-19T01:16:13.584Z,21.80
2022-12-19T01:16:45.078Z,20.27
2022-12-19T01:17:16.554Z,21.05
2022-12-19T01:17:48.954Z,19.83
2022-12-19T01:18:20.383Z,20.45
2022-12-19T01:18:51.842Z,20.70
2022-12-19T01:19:44.343Z,22.05
2022-12-19T01:20:26.669Z,20.77
2022-12-19T01:21:02.999Z,19.70
2022-12-19T01:21:35.830Z,21.20
2022-12-19T01:22:07.422Z,19.55
2022-12-19T01:22:38.867Z,21.50
2022-12-19T01:23:11.218Z,21.30
2022-12-19T01:23:42.552Z,22.63
2022-12-19T01:24:14.733Z,20.45
2022-12-19T01:24:50.298Z,21.75
2022-12-19T01:25:21.766Z,20.88
2022-12-19T01:25:55.292Z,20.88
2022-12-19T01:26:26.618Z,20.92
2022-12-19T01:26:58.149Z,21.10
2022-12-19T01:27:31.256Z,21.15
2022-12-19T01:28:03.219Z,22.10
2022-12-19T01:28:34.595Z,20.88
2022-12-19T01:29:05.911Z,22.30
2022-12-19T01:29:38.692Z,23.05
2022-12-19T01:30:24.034Z,19.75
2022-12-19T01:30:56.146Z,21.15
2022-12-19T01:31:27.696Z,21.58
2022-12-19T01:32:00.333Z,20.90
2022-12-19T01:32:35.206Z,21.60
2022-12-19T01:33:06.848Z,21.75
2022-12-19T01:33:41.337Z,21.15
2022-12-19T01:34:14.893Z,21.90
2022-12-19T01:34:46.302Z,21.95
2022-12-19T01:35:21.667Z,21.38
2022-12-19T01:35:53.556Z,22.52
2022-12-19T01:36:25.141Z,21.52
2022-12-19T01:36:56.486Z,23.27
2022-12-19T01:37:27.802Z,21.90
2022-12-19T01:38:08.185Z,21.90
2022-12-19T01:38:40.039Z,22.02
2022-12-19T01:39:30.932Z,22.88
2022-12-19T01:40:05.760Z,20.25
2022-12-19T01:40:37.468Z,22.15
2022-12-19T01:41:10.590Z,22.50
2022-12-19T01:41:42.128Z,22.95
2022-12-19T01:42:22.944Z,21.45
2022-12-19T01:42:54.724Z,22.52
2022-12-19T01:43:30.300Z,20.55
2022-12-19T01:44:05.024Z,22.73
2022-12-19T01:44:36.930Z,21.55
2022-12-19T01:45:08.435Z,22.45
2022-12-19T01:45:45.687Z,22.95
2022-12-19T01:46:17.695Z,21.50
2022-12-19T01:46:57.485Z,22.45
2022-12-19T01:47:30.200Z,23.45
2022-12-19T01:48:04.221Z,21.63
2022-12-19T01:48:39.949Z,22.75
2022-12-19T01:49:31.882Z,23.48
2022-12-19T01:50:03.662Z,22.13
2022-12-19T01:50:41.424Z,20.65
2022-12-19T01:51:23.250Z,21.15
2022-12-19T01:51:58.771Z,22.60
2022-12-19T01:52:30.364Z,22.02
2022-12-19T01:53:03.232Z,21.60
2022-12-19T01:53:48.885Z,22.38
2022-12-19T01:54:26.903Z,21.23
2022-12-19T01:54:58.531Z,23.05
2022-12-19T01:55:30.790Z,23.08
2022-12-19T01:56:09.825Z,23.43
2022-12-19T01:56:47.190Z,23.73
2022-12-19T01:57:20.048Z,22.70
2022-12-19T01:57:52.361Z,23.25
2022-12-19T01:58:23.999Z,23.98
2022-12-19T01:59:05.827Z,22.95
2022-12-19T01:59:45.800Z,23.38
2022-12-19T02:00:17.236Z,21.38
2022-12-19T02:00:48.920Z,24.60
2022-12-19T02:01:20.398Z,23.83
2022-12-19T02:01:58.639Z,24.60
2022-12-19T02:02:36.004Z,23.42
2022-12-19T02:03:28.719Z,24.10
2022-12-19T02:04:02.551Z,22.88
2022-12-19T02:04:35.136Z,23.23
2022-12-19T02:05:07.296Z,23.50
2022-12-19T02:05:40.116Z,24.25
2022-12-19T02:06:13.416Z,24.20
2022-12-19T02:06:44.932Z,24.58
2022-12-19T02:07:20.159Z,25.45
2022-12-19T02:07:52.914Z,24.03
2022-12-19T02:08:24.790Z,23.77
2022-12-19T02:09:47.611Z,22.40
2022-12-19T02:10:23.776Z,23.00
2022-12-19T02:10:55.097Z,22.80
2022-12-19T02:11:26.421Z,23.20
2022-12-19T02:12:00.041Z,25.40
2022-12-19T02:12:35.677Z,24.05
2022-12-19T02:13:08.031Z,23.70
2022-12-19T02:13:40.767Z,23.50
2022-12-19T02:14:14.893Z,24.75
2022-12-19T02:14:47.038Z,25.83
2022-12-19T02:15:18.624Z,25.60
2022-12-19T02:16:19.874Z,24.98
2022-12-19T02:17:22.879Z,22.38
2022-12-19T02:18:24.087Z,21.27
2022-12-19T02:19:14.568Z,21.98
2022-12-19T02:20:07.664Z,21.58
2022-12-19T02:21:09.949Z,20.15
2022-12-19T02:22:08.237Z,20.03
2022-12-19T02:23:01.113Z,20.33
2022-12-19T02:23:47.385Z,20.77
2022-12-19T02:24:46.540Z,21.98
2022-12-19T02:25:48.454Z,21.40
2022-12-19T02:26:23.990Z,18.98
2022-12-19T02:27:17.950Z,22.23
2022-12-19T02:28:04.517Z,20.60
2022-12-19T02:28:59.596Z,21.08
2022-12-19T02:29:52.032Z,22.85
2022-12-19T02:30:35.726Z,19.80
2022-12-19T02:31:58.845Z,21.38
2022-12-19T02:32:43.304Z,18.48
2022-12-19T02:33:20.589Z,21.58
2022-12-19T02:34:03.113Z,21.30
2022-12-19T02:34:34.447Z,21.83
2022-12-19T02:35:20.044Z,22.30
2022-12-19T02:35:54.740Z,20.98
2022-12-19T02:36:42.051Z,22.02
2022-12-19T02:37:28.179Z,20.67
2022-12-19T02:38:03.637Z,19.67
2022-12-19T02:39:00.976Z,20.75
2022-12-19T02:39:42.664Z,21.80
2022-12-19T02:41:06.519Z,22.50
2022-12-19T02:41:57.289Z,19.38
2022-12-19T02:42:32.615Z,20.67
2022-12-19T02:43:06.533Z,21.02
2022-12-19T02:43:42.632Z,22.00
2022-12-19T02:44:37.861Z,21.85
2022-12-19T02:45:28.590Z,20.17
2022-12-19T02:46:02.849Z,19.20
2022-12-19T02:46:34.809Z,21.90
2022-12-19T02:47:07.568Z,23.63
2022-12-19T02:47:39.670Z,23.00
2022-12-19T02:48:16.158Z,23.77
2022-12-19T02:48:51.605Z,21.35
2022-12-19T02:49:30.638Z,23.70
2022-12-19T02:50:04.431Z,23.08
2022-12-19T02:50:41.521Z,22.45
2022-12-19T02:51:12.840Z,21.98
2022-12-19T02:51:44.318Z,24.13
2022-12-19T02:52:21.338Z,24.90
2022-12-19T02:52:52.722Z,23.98
2022-12-19T02:53:24.302Z,22.90
2022-12-19T02:53:55.966Z,25.15
2022-12-19T02:54:27.380Z,24.35
2022-12-19T02:55:11.410Z,23.73
2022-12-19T02:56:10.826Z,22.33
2022-12-19T02:56:50.748Z,20.17
2022-12-19T02:57:40.837Z,20.13
2022-12-19T02:58:18.073Z,21.00
2022-12-19T02:59:38.999Z,21.48
2022-12-19T03:00:24.326Z,19.17
2022-12-19T03:03:12.526Z,18.35
2022-12-19T03:03:59.541Z,21.42
2022-12-19T03:04:40.108Z,20.88
2022-12-19T03:05:19.981Z,20.13
2022-12-19T03:06:09.583Z,19.65
2022-12-19T03:06:49.618Z,18.67
2022-12-19T03:07:33.407Z,20.58
2022-12-19T03:08:23.425Z,19.60
2022-12-19T03:09:14.027Z,20.58
2022-12-19T03:09:57.680Z,19.45
2022-12-19T03:10:46.022Z,19.90
2022-12-19T03:11:17.668Z,19.52
2022-12-19T03:11:54.058Z,20.88
2022-12-19T03:12:36.072Z,20.80
2022-12-19T03:13:21.307Z,20.95
2022-12-19T03:14:22.720Z,19.70
2022-12-19T03:14:56.877Z,18.63
2022-12-19T03:15:29.144Z,19.05
2022-12-19T03:16:02.557Z,21.70
2022-12-19T03:16:36.317Z,20.80
2022-12-19T03:17:08.505Z,20.98
2022-12-19T03:17:40.315Z,21.88
2022-12-19T03:18:12.048Z,24.23
2022-12-19T03:18:44.225Z,22.50
2022-12-19T03:19:16.760Z,22.40
2022-12-19T03:19:48.344Z,22.43
2022-12-19T03:20:28.725Z,22.70
2022-12-19T03:21:06.710Z,21.48
2022-12-19T03:21:45.321Z,21.35
2022-12-19T03:22:16.810Z,20.90
2022-12-19T03:22:48.274Z,21.55
2022-12-19T03:23:20.487Z,21.70
2022-12-19T03:23:55.018Z,20.85
2022-12-19T03:24:27.163Z,20.80
2022-12-19T03:24:58.553Z,21.00
2022-12-19T03:25:31.062Z,21.87
2022-12-19T03:26:09.720Z,20.50
2022-12-19T03:26:47.065Z,21.30
2022-12-19T03:27:28.230Z,21.23
2022-12-19T03:28:03.415Z,20.50
2022-12-19T03:28:50.545Z,20.63
2022-12-19T03:29:29.271Z,21.17
2022-12-19T03:30:05.859Z,20.63
2022-12-19T03:30:41.170Z,21.10
2022-12-19T03:31:14.940Z,20.05
2022-12-19T03:31:47.245Z,19.83
2022-12-19T03:32:20.669Z,20.15
2022-12-19T03:32:52.921Z,21.25
2022-12-19T03:33:27.624Z,21.85
2022-12-19T03:34:10.009Z,21.83
2022-12-19T03:34:53.729Z,20.48
2022-12-19T03:35:28.949Z,20.27
2022-12-19T03:36:05.263Z,21.27
2022-12-19T03:36:42.746Z,20.65
2022-12-19T03:37:36.173Z,19.75
2022-12-19T03:38:11.172Z,19.17
2022-12-19T03:38:46.237Z,19.83
2022-12-19T03:39:20.792Z,19.90
2022-12-19T03:40:00.730Z,20.23
2022-12-19T03:40:35.978Z,19.73
2022-12-19T03:41:10.825Z,20.05
2022-12-19T03:42:02.922Z,20.75
2022-12-19T03:42:56.523Z,19.13
2022-12-19T03:43:29.256Z,18.55
2022-12-19T03:44:01.544Z,20.27
2022-12-19T03:44:36.840Z,21.30
2022-12-19T03:45:09.348Z,20.40
2022-12-19T03:46:00.422Z,20.30
2022-12-19T03:46:32.707Z,20.10
2022-12-19T03:47:13.393Z,19.88
2022-12-19T03:47:50.862Z,18.95
2022-12-19T03:48:45.251Z,19.30
2022-12-19T03:49:16.800Z,18.10
2022-12-19T03:49:48.781Z,19.13
2022-12-19T03:50:22.225Z,19.40
2022-12-19T03:51:35.067Z,19.67
2022-12-19T03:52:21.325Z,17.40
2022-12-19T03:53:03.632Z,18.48
2022-12-19T03:53:34.920Z,19.08
2022-12-19T03:54:23.359Z,19.88
2022-12-19T03:55:06.389Z,17.65
2022-12-19T03:55:53.329Z,19.33
2022-12-19T03:56:50.982Z,16.85
2022-12-19T03:57:34.160Z,16.95
2022-12-19T03:58:26.597Z,17.27
2022-12-19T03:59:05.031Z,16.17
2022-12-19T03:59:48.052Z,16.95
2022-12-19T04:00:21.191Z,16.75
2022-12-19T04:00:54.566Z,17.92
2022-12-19T04:01:28.313Z,18.02
2022-12-19T04:02:01.643Z,17.63
2022-12-19T04:02:38.128Z,17.55
2022-12-19T04:03:10.394Z,18.50
2022-12-19T04:03:42.075Z,19.40
2022-12-19T04:04:14.808Z,18.00
2022-12-19T04:04:52.153Z,18.50
2022-12-19T04:05:26.817Z,18.52
2022-12-19T04:06:00.886Z,18.20
2022-12-19T04:06:34.098Z,18.65
2022-12-19T04:07:06.989Z,18.00
2022-12-19T04:07:40.165Z,19.65
2022-12-19T04:08:11.948Z,17.52
2022-12-19T04:08:44.088Z,18.75
2022-12-19T04:09:22.393Z,19.00
2022-12-19T04:09:55.800Z,17.50
2022-12-19T04:10:28.810Z,17.37
2022-12-19T04:11:14.041Z,17.65
2022-12-19T04:11:51.645Z,17.45
2022-12-19T04:12:30.354Z,17.52
2022-12-19T04:13:09.223Z,17.05
2022-12-19T04:13:50.123Z,15.50
2022-12-19T04:14:30.724Z,16.30
2022-12-19T04:15:03.260Z,16.35
2022-12-19T04:15:51.250Z,18.60
2022-12-19T04:16:52.262Z,14.15
2022-12-19T04:17:42.001Z,13.90
2022-12-19T04:18:14.317Z,15.07
2022-12-19T04:18:53.224Z,16.23
2022-12-19T04:19:36.440Z,16.48
2022-12-19T04:20:16.771Z,15.32
2022-12-19T04:20:58.503Z,15.82
2022-12-19T04:21:38.534Z,14.13
2022-12-19T04:22:43.826Z,15.13
2022-12-19T04:23:22.067Z,14.98
2022-12-19T04:24:03.413Z,14.38
2022-12-19T04:24:38.862Z,14.17
2022-12-19T04:25:14.441Z,15.38
2022-12-19T04:25:51.735Z,15.52
2022-12-19T04:26:24.372Z,14.93
2022-12-19T04:26:58.489Z,14.43
2022-12-19T04:27:34.014Z,14.00
2022-12-19T04:28:20.261Z,14.48
2022-12-19T04:28:58.809Z,14.80
2022-12-19T04:29:34.103Z,14.70
2022-12-19T04:30:06.300Z,13.68
2022-12-19T04:30:39.658Z,16.07
2022-12-19T04:31:13.906Z,15.05
2022-12-19T04:31:46.168Z,15.00
2022-12-19T04:32:19.108Z,14.68
2022-12-19T04:32:51.206Z,15.40
2022-12-19T04:33:22.744Z,14.40
2022-12-19T04:33:54.189Z,14.23
2022-12-19T04:34:25.757Z,15.30
2022-12-19T04:34:59.994Z,16.85
2022-12-19T04:35:31.475Z,15.35
2022-12-19T04:36:03.081Z,16.97
2022-12-19T04:36:34.645Z,16.70
2022-12-19T04:37:06.565Z,16.70
2022-12-19T04:37:38.533Z,16.17
2022-12-19T04:38:09.979Z,16.60
2022-12-19T04:38:41.586Z,16.45
2022-12-19T04:39:13.020Z,15.43
2022-12-19T04:39:44.505Z,16.40
2022-12-19T04:40:15.958Z,16.38
2022-12-19T04:40:47.389Z,15.77
2022-12-19T04:41:18.875Z,15.67
2022-12-19T04:41:50.237Z,15.73
2022-12-19T04:42:21.893Z,14.95
2022-12-19T04:42:53.317Z,15.70
2022-12-19T04:43:24.929Z,16.48
2022-12-19T04:43:56.329Z,16.50
2022-12-19T04:44:27.728Z,16.42
2022-12-19T04:44:59.094Z,15.60
2022-12-19T04:45:30.559Z,17.67
2022-12-19T04:46:02.548Z,16.88
2022-12-19T04:47:23.067Z,13.80
2022-12-19T04:47:54.627Z,15.63
2022-12-19T04:48:26.430Z,16.30
2022-12-19T04:48:57.797Z,15.65
2022-12-19T04:49:29.311Z,16.30
2022-12-19T04:50:00.908Z,15.55
2022-12-19T04:50:33.175Z,15.65
2022-12-19T04:51:04.646Z,16.10
2022-12-19T04:51:36.120Z,16.25
2022-12-19T04:52:08.000Z,15.87
2022-12-19T04:52:39.428Z,15.27
2022-12-19T04:53:10.876Z,16.23
2022-12-19T04:53:42.777Z,15.75
2022-12-19T04:54:14.210Z,15.55
2022-12-19T04:54:45.558Z,16.55
2022-12-19T04:55:16.919Z,16.13
2022-12-19T04:55:48.339Z,15.35
2022-12-19T04:56:19.744Z,16.40
2022-12-19T04:56:53.314Z,16.77
2022-12-19T04:57:24.714Z,16.47
2022-12-19T04:57:56.130Z,15.48
2022-12-19T04:58:29.989Z,18.15
2022-12-19T04:59:01.541Z,16.92
2022-12-19T04:59:33.079Z,16.45
2022-12-19T05:00:07.046Z,16.55
2022-12-19T05:00:38.450Z,17.33
2022-12-19T05:01:10.100Z,15.85
2022-12-19T05:01:41.569Z,16.33
2022-12-19T05:02:13.178Z,15.95
2022-12-19T05:02:45.598Z,16.57
2022-12-19T05:03:17.140Z,16.67
2022-12-19T05:03:54.264Z,16.52
2022-12-19T05:04:26.684Z,16.73
2022-12-19T05:04:58.619Z,16.02
2022-12-19T05:05:30.001Z,15.60
2022-12-19T05:06:10.036Z,16.60
2022-12-19T05:06:41.441Z,15.07
2022-12-19T05:07:15.970Z,15.55
2022-12-19T05:07:47.444Z,16.35
2022-12-19T05:08:18.851Z,14.87
2022-12-19T05:08:50.222Z,16.15
2022-12-19T05:09:21.682Z,15.82
2022-12-19T05:09:53.278Z,15.88
2022-12-19T05:10:24.880Z,16.20
2022-12-19T05:11:00.632Z,15.98
2022-12-19T05:11:32.089Z,15.35
2022-12-19T05:12:03.739Z,15.52
2022-12-19T05:12:35.129Z,16.23
2022-12-19T05:13:06.508Z,15.50
2022-12-19T05:13:38.068Z,15.83
2022-12-19T05:14:10.131Z,14.82
2022-12-19T05:14:41.556Z,16.30
2022-12-19T05:15:12.935Z,15.32
2022-12-19T05:15:44.305Z,16.45
2022-12-19T05:16:16.315Z,15.02
2022-12-19T05:16:47.714Z,15.88
2022-12-19T05:17:19.389Z,14.73
2022-12-19T05:17:50.792Z,17.23
2022-12-19T05:18:22.180Z,15.55
2022-12-19T05:18:54.205Z,15.37
2022-12-19T05:19:25.583Z,15.02
2022-12-19T05:19:57.015Z,14.55
2022-12-19T05:20:28.504Z,14.90
2022-12-19T05:21:00.412Z,14.90
2022-12-19T05:21:31.749Z,14.15
2022-12-19T05:22:03.122Z,15.27
2022-12-19T05:22:34.964Z,13.68
2022-12-19T05:23:12.076Z,15.13
2022-12-19T05:23:47.620Z,13.90
2022-12-19T05:24:19.012Z,14.83
2022-12-19T05:24:50.342Z,14.68
2022-12-19T05:25:21.759Z,13.63
2022-12-19T05:25:53.240Z,14.95
2022-12-19T05:26:24.876Z,13.82
2022-12-19T05:26:56.242Z,14.45
2022-12-19T05:27:27.569Z,13.65
2022-12-19T05:27:58.893Z,13.45
2022-12-19T05:28:30.986Z,14.80
2022-12-19T05:29:02.563Z,13.23
2022-12-19T05:29:34.724Z,13.53
2022-12-19T05:30:06.759Z,13.07
2022-12-19T05:30:38.218Z,12.77
2022-12-19T05:31:15.098Z,13.25
2022-12-19T05:31:46.614Z,13.30
2022-12-19T05:32:18.139Z,13.48
2022-12-19T05:32:49.521Z,13.90
2022-12-19T05:33:20.920Z,13.50
2022-12-19T05:33:52.355Z,13.10
2022-12-19T05:34:24.759Z,13.10
2022-12-19T05:34:56.172Z,12.27
2022-12-19T05:35:27.770Z,13.00
2022-12-19T05:35:59.312Z,12.77
2022-12-19T05:36:32.627Z,12.57
2022-12-19T05:37:04.407Z,13.82
2022-12-19T05:37:35.803Z,12.93
2022-12-19T05:38:07.362Z,13.65
2022-12-19T05:38:38.881Z,12.63
2022-12-19T05:39:11.695Z,13.15
2022-12-19T05:39:43.124Z,13.02
2022-12-19T05:40:14.566Z,12.60
2022-12-19T05:40:45.985Z,12.82
2022-12-19T05:41:19.548Z,13.18
2022-12-19T05:41:51.064Z,12.65
2022-12-19T05:42:22.399Z,14.35
2022-12-19T05:42:53.858Z,13.18
2022-12-19T05:43:25.243Z,14.20
2022-12-19T05:43:56.812Z,13.57
2022-12-19T05:44:28.239Z,13.50
2022-12-19T05:44:59.586Z,14.35
2022-12-19T05:45:30.957Z,12.87
2022-12-19T05:46:04.539Z,13.15
2022-12-19T05:46:36.143Z,14.32
2022-12-19T05:47:08.180Z,12.35
2022-12-19T05:47:39.501Z,12.55
2022-12-19T05:48:10.843Z,13.40
2022-12-19T05:48:42.245Z,12.68
2022-12-19T05:49:16.997Z,13.23
2022-12-19T05:49:48.576Z,12.98
2022-12-19T05:50:20.181Z,11.50
2022-12-19T05:50:51.558Z,13.10
2022-12-19T05:51:23.030Z,11.48
2022-12-19T05:51:54.381Z,12.38
2022-12-19T05:52:25.783Z,12.40
2022-12-19T05:52:57.353Z,12.23
2022-12-19T05:53:29.306Z,13.23
2022-12-19T05:54:01.135Z,13.15
2022-12-19T05:54:32.552Z,11.65
2022-12-19T05:55:05.427Z,12.60
2022-12-19T05:55:36.811Z,12.98
2022-12-19T05:56:11.755Z,11.97
2022-12-19T05:56:43.296Z,11.77
2022-12-19T05:57:14.658Z,12.15
2022-12-19T05:57:46.077Z,11.30
2022-12-19T05:58:19.102Z,11.27
2022-12-19T05:58:50.556Z,13.48
2022-12-19T05:59:21.910Z,12.80
2022-12-19T05:59:53.310Z,12.85
2022-12-19T06:00:25.625Z,13.45
2022-12-19T06:01:02.786Z,12.07
2022-12-19T06:01:53.568Z,12.17
2022-12-19T06:02:25.729Z,10.95
2022-12-19T06:02:57.394Z,12.00
2022-12-19T06:03:28.827Z,11.68
2022-12-19T06:04:00.197Z,13.00
2022-12-19T06:04:31.642Z,11.80
2022-12-19T06:05:03.184Z,12.05
2022-12-19T06:05:37.317Z,13.15
2022-12-19T06:06:12.195Z,12.85
2022-12-19T06:06:43.766Z,11.55
2022-12-19T06:07:20.596Z,12.43
2022-12-19T06:07:52.309Z,12.13
2022-12-19T06:08:23.675Z,12.20
2022-12-19T06:08:56.568Z,12.07
2022-12-19T06:09:28.012Z,12.80
2022-12-19T06:09:59.408Z,11.75
2022-12-19T06:10:30.822Z,11.18
2022-12-19T06:11:05.205Z,12.30
2022-12-19T06:11:36.675Z,12.32
2022-12-19T06:12:08.059Z,10.73
2022-12-19T06:12:39.562Z,12.10
2022-12-19T06:13:10.995Z,10.70
2022-12-19T06:13:42.392Z,11.77
2022-12-19T06:14:13.754Z,11.98
2022-12-19T06:14:45.103Z,13.00
2022-12-19T06:15:16.782Z,11.35
2022-12-19T06:15:48.201Z,11.98
2022-12-19T06:16:21.492Z,11.55
2022-12-19T06:16:53.089Z,12.38
2022-12-19T06:17:24.923Z,11.77
2022-12-19T06:17:56.356Z,12.27
2022-12-19T06:18:28.389Z,12.00
2022-12-19T06:18:59.808Z,12.68
2022-12-19T06:19:31.353Z,11.38
2022-12-19T06:20:02.776Z,10.77
2022-12-19T06:20:34.157Z,10.73
2022-12-19T06:21:08.229Z,11.07
2022-12-19T06:21:45.545Z,11.00
2022-12-19T06:22:19.198Z,10.98
2022-12-19T06:22:50.727Z,10.55
2022-12-19T06:23:22.950Z,10.60
2022-12-19T06:23:55.002Z,10.70
2022-12-19T06:24:26.405Z,10.75
2022-12-19T06:24:57.722Z,12.05
2022-12-19T06:25:29.687Z,10.77
2022-12-19T06:26:02.581Z,12.07
2022-12-19T06:26:33.944Z,11.65
2022-12-19T06:27:05.523Z,11.50
2022-12-19T06:27:36.857Z,10.73
2022-12-19T06:28:08.191Z,11.07
2022-12-19T06:28:40.074Z,10.97
2022-12-19T06:29:11.490Z,10.20
2022-12-19T06:29:42.881Z,9.70
2022-12-19T06:30:15.268Z,10.30
2022-12-19T06:30:47.168Z,10.23
2022-12-19T06:31:23.524Z,9.70
2022-12-19T06:31:56.166Z,10.10
2022-12-19T06:32:27.536Z,10.25
2022-12-19T06:32:58.973Z,11.23
2022-12-19T06:33:31.881Z,10.07
2022-12-19T06:34:03.293Z,10.10
2022-12-19T06:35:02.841Z,10.57
2022-12-19T06:35:26.286Z,10.48
2022-12-19T06:36:01.941Z,9.82
2022-12-19T06:36:33.509Z,9.07
2022-12-19T06:37:08.141Z,9.15
2022-12-19T06:37:39.887Z,9.27
2022-12-19T06:38:11.225Z,10.20
2022-12-19T06:38:42.650Z,9.38
2022-12-19T06:39:15.384Z,9.63
2022-12-19T06:39:46.734Z,10.53
2022-12-19T06:40:38.084Z,10.32
2022-12-19T06:41:29.287Z,8.07
2022-12-19T06:42:19.361Z,9.98
2022-12-19T06:42:50.932Z,9.18
2022-12-19T06:43:26.028Z,8.70
2022-12-19T06:43:58.828Z,9.32
2022-12-19T06:44:31.801Z,8.90
2022-12-19T06:45:03.602Z,9.70
2022-12-19T06:45:35.061Z,11.10
2022-12-19T06:46:07.021Z,10.37
2022-12-19T06:46:38.569Z,9.65
2022-12-19T06:47:10.013Z,9.93
2022-12-19T06:47:41.564Z,10.70
2022-12-19T06:48:12.962Z,9.00
2022-12-19T06:48:44.346Z,10.52
2022-12-19T06:49:15.901Z,10.90
2022-12-19T06:49:48.716Z,10.55
2022-12-19T06:50:20.037Z,9.68
2022-12-19T06:50:51.405Z,11.00
2022-12-19T06:51:23.321Z,10.13
2022-12-19T06:51:54.688Z,10.50
2022-12-19T06:52:26.118Z,9.70
2022-12-19T06:52:57.900Z,10.27
2022-12-19T06:53:30.048Z,9.82
2022-12-19T06:54:02.081Z,10.60
2022-12-19T06:54:33.503Z,10.52
2022-12-19T06:55:05.840Z,10.48
2022-12-19T06:55:37.750Z,9.85
2022-12-19T06:56:09.314Z,10.55
2022-12-19T06:56:42.678Z,10.80
2022-12-19T06:57:14.417Z,9.55
2022-12-19T06:57:46.499Z,10.30
2022-12-19T06:58:22.704Z,11.32
2022-12-19T06:58:55.626Z,10.07
2022-12-19T06:59:26.966Z,9.80
2022-12-19T06:59:58.477Z,11.45
2022-12-19T07:00:36.328Z,11.00
2022-12-19T07:01:08.305Z,10.10
2022-12-19T07:01:57.998Z,11.05
2022-12-19T07:02:31.867Z,9.33
2022-12-19T07:03:06.928Z,9.93
2022-12-19T07:03:41.200Z,10.57
2022-12-19T07:04:16.183Z,10.10
2022-12-19T07:04:54.094Z,9.85
2022-12-19T07:05:26.166Z,10.07
2022-12-19T07:05:58.048Z,10.65
2022-12-19T07:06:29.596Z,11.05
2022-12-19T07:07:01.386Z,10.70
2022-12-19T07:07:33.457Z,11.23
2022-12-19T07:08:05.377Z,10.93
2022-12-19T07:08:36.812Z,10.95
2022-12-19T07:09:08.421Z,10.68
2022-12-19T07:09:41.069Z,11.55
2022-12-19T07:10:12.538Z,11.63
2022-12-19T07:10:44.064Z,10.90
2022-12-19T07:11:15.424Z,11.20
2022-12-19T07:11:47.009Z,11.45
2022-12-19T07:12:18.567Z,11.15
2022-12-19T07:13:08.256Z,11.10
2022-12-19T07:13:39.735Z,10.33
2022-12-19T07:14:11.171Z,10.63
2022-12-19T07:14:42.733Z,11.65
2022-12-19T07:15:14.145Z,11.18
2022-12-19T07:15:45.777Z,11.18
2022-12-19T07:16:17.261Z,11.45
2022-12-19T07:16:50.829Z,10.95
2022-12-19T07:17:25.740Z,11.82
2022-12-19T07:17:59.034Z,12.00
2022-12-19T07:18:34.378Z,11.45
2022-12-19T07:19:09.187Z,11.10
2022-12-19T07:19:40.885Z,10.93
2022-12-19T07:20:13.835Z,12.13
2022-12-19T07:20:45.566Z,11.43
2022-12-19T07:21:17.089Z,12.65
2022-12-19T07:21:48.992Z,12.48
2022-12-19T07:22:20.906Z,12.85
2022-12-19T07:22:52.775Z,12.35
2022-12-19T07:23:24.428Z,12.68
2022-12-19T07:23:55.861Z,11.52
2022-12-19T07:24:27.469Z,11.87
2022-12-19T07:24:59.853Z,12.10
2022-12-19T07:25:31.817Z,12.15
2022-12-19T07:26:03.906Z,12.75
2022-12-19T07:26:35.855Z,13.40
2022-12-19T07:27:07.774Z,12.48
2022-12-19T07:27:39.254Z,12.07
2022-12-19T07:29:00.561Z,12.50
2022-12-19T07:29:31.861Z,11.32
2022-12-19T07:30:05.908Z,11.57
2022-12-19T07:30:37.311Z,11.63
2022-12-19T07:31:08.813Z,11.77
2022-12-19T07:31:40.398Z,12.48
2022-12-19T07:32:11.777Z,12.07
2022-12-19T07:32:43.291Z,11.80
2022-12-19T07:33:21.034Z,13.10
2022-12-19T07:33:53.023Z,12.55
2022-12-19T07:34:24.400Z,12.40
2022-12-19T07:34:55.969Z,12.80
2022-12-19T07:35:27.347Z,12.33
2022-12-19T07:35:58.700Z,12.40
2022-12-19T07:36:30.095Z,13.57